sensor_id;sensor_type;location;lat;lon;timestamp;temperature;humidity
47618;DHT22;33336;36.728;-4.414;2023-04-24T00:04:04;22.00;73.40
47618;DHT22;33336;36.728;-4.414;2023-04-24T00:09:08;21.80;73.90
47618;DHT22;33336;36.728;-4.414;2023-04-24T00:14:13;21.80;73.70
47618;DHT22;33336;36.728;-4.414;2023-04-24T00:19:16;21.80;74.30
47618;DHT22;33336;36.728;-4.414;2023-04-24T00:24:22;21.60;74.00
47618;DHT22;33336;36.728;-4.414;2023-04-24T00:29:27;21.50;75.30
47618;DHT22;33336;36.728;-4.414;2023-04-24T00:34:30;21.60;74.20
47618;DHT22;33336;36.728;-4.414;2023-04-24T00:39:34;21.40;74.70
47618;DHT22;33336;36.728;-4.414;2023-04-24T00:44:38;21.50;74.00
47618;DHT22;33336;36.728;-4.414;2023-04-24T00:49:42;21.20;73.70
47618;DHT22;33336;36.728;-4.414;2023-04-24T00:54:45;21.00;74.40
47618;DHT22;33336;36.728;-4.414;2023-04-24T00:59:50;21.10;74.20
47618;DHT22;33336;36.728;-4.414;2023-04-24T01:04:53;21.10;74.00
47618;DHT22;33336;36.728;-4.414;2023-04-24T01:09:56;21.20;73.90
47618;DHT22;33336;36.728;-4.414;2023-04-24T01:15:01;21.20;73.80
47618;DHT22;33336;36.728;-4.414;2023-04-24T01:20:06;21.10;73.90
47618;DHT22;33336;36.728;-4.414;2023-04-24T01:25:11;21.00;73.70
47618;DHT22;33336;36.728;-4.414;2023-04-24T01:30:14;20.90;74.30
47618;DHT22;33336;36.728;-4.414;2023-04-24T01:35:17;21.00;73.60
47618;DHT22;33336;36.728;-4.414;2023-04-24T01:40:21;20.90;72.90
47618;DHT22;33336;36.728;-4.414;2023-04-24T01:45:24;20.80;73.20
47618;DHT22;33336;36.728;-4.414;2023-04-24T01:50:28;20.90;73.00
47618;DHT22;33336;36.728;-4.414;2023-04-24T01:55:33;20.60;73.50
47618;DHT22;33336;36.728;-4.414;2023-04-24T02:00:36;20.30;74.20
47618;DHT22;33336;36.728;-4.414;2023-04-24T02:05:39;20.50;73.60
47618;DHT22;33336;36.728;-4.414;2023-04-24T02:10:44;20.60;73.80
47618;DHT22;33336;36.728;-4.414;2023-04-24T02:15:46;20.70;74.10
47618;DHT22;33336;36.728;-4.414;2023-04-24T02:20:50;20.60;73.80
47618;DHT22;33336;36.728;-4.414;2023-04-24T02:25:54;20.60;73.60
47618;DHT22;33336;36.728;-4.414;2023-04-24T02:30:57;20.60;74.50
47618;DHT22;33336;36.728;-4.414;2023-04-24T02:36:01;20.40;77.50
47618;DHT22;33336;36.728;-4.414;2023-04-24T02:41:05;20.40;76.40
47618;DHT22;33336;36.728;-4.414;2023-04-24T02:46:08;20.40;76.20
47618;DHT22;33336;36.728;-4.414;2023-04-24T02:51:11;20.20;78.00
47618;DHT22;33336;36.728;-4.414;2023-04-24T02:56:16;20.30;77.30
47618;DHT22;33336;36.728;-4.414;2023-04-24T03:01:19;20.40;75.70
47618;DHT22;33336;36.728;-4.414;2023-04-24T03:06:22;20.30;74.20
47618;DHT22;33336;36.728;-4.414;2023-04-24T03:11:26;20.30;73.80
47618;DHT22;33336;36.728;-4.414;2023-04-24T03:16:29;20.20;74.20
47618;DHT22;33336;36.728;-4.414;2023-04-24T03:21:33;20.10;72.50
47618;DHT22;33336;36.728;-4.414;2023-04-24T03:26:38;20.00;72.50
47618;DHT22;33336;36.728;-4.414;2023-04-24T03:31:41;19.70;72.80
47618;DHT22;33336;36.728;-4.414;2023-04-24T03:36:44;19.80;73.00
47618;DHT22;33336;36.728;-4.414;2023-04-24T03:41:50;19.90;72.80
47618;DHT22;33336;36.728;-4.414;2023-04-24T03:46:53;19.90;73.00
47618;DHT22;33336;36.728;-4.414;2023-04-24T03:51:57;19.80;73.70
47618;DHT22;33336;36.728;-4.414;2023-04-24T03:57:01;19.80;73.90
47618;DHT22;33336;36.728;-4.414;2023-04-24T04:02:06;19.90;73.90
47618;DHT22;33336;36.728;-4.414;2023-04-24T04:07:09;19.80;73.70
47618;DHT22;33336;36.728;-4.414;2023-04-24T04:12:14;19.80;73.50
47618;DHT22;33336;36.728;-4.414;2023-04-24T04:17:17;19.80;73.00
47618;DHT22;33336;36.728;-4.414;2023-04-24T04:22:20;19.70;73.30
47618;DHT22;33336;36.728;-4.414;2023-04-24T04:27:25;19.70;72.70
47618;DHT22;33336;36.728;-4.414;2023-04-24T04:32:28;19.80;72.80
47618;DHT22;33336;36.728;-4.414;2023-04-24T04:37:32;19.80;73.20
47618;DHT22;33336;36.728;-4.414;2023-04-24T04:42:37;19.70;73.50
47618;DHT22;33336;36.728;-4.414;2023-04-24T04:47:41;19.60;72.90
47618;DHT22;33336;36.728;-4.414;2023-04-24T04:52:44;19.50;72.80
47618;DHT22;33336;36.728;-4.414;2023-04-24T04:57:49;19.60;72.70
47618;DHT22;33336;36.728;-4.414;2023-04-24T05:02:52;19.70;72.20
47618;DHT22;33336;36.728;-4.414;2023-04-24T05:07:55;19.60;72.40
47618;DHT22;33336;36.728;-4.414;2023-04-24T05:12:59;19.60;72.30
47618;DHT22;33336;36.728;-4.414;2023-04-24T05:18:03;19.40;72.50
47618;DHT22;33336;36.728;-4.414;2023-04-24T05:23:05;19.50;72.70
47618;DHT22;33336;36.728;-4.414;2023-04-24T05:28:10;19.50;72.50
47618;DHT22;33336;36.728;-4.414;2023-04-24T05:33:13;19.50;72.60
47618;DHT22;33336;36.728;-4.414;2023-04-24T05:38:17;19.10;73.10
47618;DHT22;33336;36.728;-4.414;2023-04-24T05:43:22;19.30;73.00
47618;DHT22;33336;36.728;-4.414;2023-04-24T05:48:25;19.40;73.30
47618;DHT22;33336;36.728;-4.414;2023-04-24T05:53:28;19.40;73.60
47618;DHT22;33336;36.728;-4.414;2023-04-24T05:58:33;19.30;73.40
47618;DHT22;33336;36.728;-4.414;2023-04-24T06:03:38;19.50;73.90
47618;DHT22;33336;36.728;-4.414;2023-04-24T06:08:42;19.60;73.50
47618;DHT22;33336;36.728;-4.414;2023-04-24T06:13:46;19.70;73.50
47618;DHT22;33336;36.728;-4.414;2023-04-24T06:18:50;19.80;73.50
47618;DHT22;33336;36.728;-4.414;2023-04-24T06:23:53;19.80;73.40
47618;DHT22;33336;36.728;-4.414;2023-04-24T06:28:58;20.00;73.50
47618;DHT22;33336;36.728;-4.414;2023-04-24T06:34:01;20.00;73.70
47618;DHT22;33336;36.728;-4.414;2023-04-24T06:39:04;20.10;73.60
47618;DHT22;33336;36.728;-4.414;2023-04-24T06:44:09;20.20;73.50
47618;DHT22;33336;36.728;-4.414;2023-04-24T06:49:12;20.30;73.70
47618;DHT22;33336;36.728;-4.414;2023-04-24T06:54:17;20.50;73.60
47618;DHT22;33336;36.728;-4.414;2023-04-24T06:59:21;20.50;73.90
47618;DHT22;33336;36.728;-4.414;2023-04-24T07:04:24;20.70;74.10
47618;DHT22;33336;36.728;-4.414;2023-04-24T07:09:28;20.90;73.10
47618;DHT22;33336;36.728;-4.414;2023-04-24T07:14:32;21.00;74.80
47618;DHT22;33336;36.728;-4.414;2023-04-24T07:19:36;21.20;74.70
47618;DHT22;33336;36.728;-4.414;2023-04-24T07:24:39;21.30;73.50
47618;DHT22;33336;36.728;-4.414;2023-04-24T07:29:43;21.50;73.20
47618;DHT22;33336;36.728;-4.414;2023-04-24T07:34:46;21.60;73.30
47618;DHT22;33336;36.728;-4.414;2023-04-24T07:39:49;21.80;71.90
47618;DHT22;33336;36.728;-4.414;2023-04-24T07:44:53;22.10;71.30
47618;DHT22;33336;36.728;-4.414;2023-04-24T07:49:57;22.20;69.20
47618;DHT22;33336;36.728;-4.414;2023-04-24T07:55:00;22.00;68.40
47618;DHT22;33336;36.728;-4.414;2023-04-24T08:00:07;22.40;67.10
47618;DHT22;33336;36.728;-4.414;2023-04-24T08:05:10;22.10;66.00
47618;DHT22;33336;36.728;-4.414;2023-04-24T08:10:13;22.10;67.30
47618;DHT22;33336;36.728;-4.414;2023-04-24T08:15:17;22.10;68.60
47618;DHT22;33336;36.728;-4.414;2023-04-24T08:20:21;22.00;72.10
47618;DHT22;33336;36.728;-4.414;2023-04-24T08:25:24;21.50;82.50
47618;DHT22;33336;36.728;-4.414;2023-04-24T08:30:29;21.10;88.70
47618;DHT22;33336;36.728;-4.414;2023-04-24T08:35:31;21.20;88.00
47618;DHT22;33336;36.728;-4.414;2023-04-24T08:40:35;21.20;87.90
47618;DHT22;33336;36.728;-4.414;2023-04-24T08:45:40;21.50;88.30
47618;DHT22;33336;36.728;-4.414;2023-04-24T08:50:44;21.40;90.30
47618;DHT22;33336;36.728;-4.414;2023-04-24T08:55:48;21.00;93.10
47618;DHT22;33336;36.728;-4.414;2023-04-24T09:00:53;21.20;95.00
47618;DHT22;33336;36.728;-4.414;2023-04-24T09:05:57;21.60;95.10
47618;DHT22;33336;36.728;-4.414;2023-04-24T09:11:01;21.70;96.20
47618;DHT22;33336;36.728;-4.414;2023-04-24T09:16:06;21.80;96.50
47618;DHT22;33336;36.728;-4.414;2023-04-24T09:21:09;21.30;98.80
47618;DHT22;33336;36.728;-4.414;2023-04-24T09:26:12;20.80;99.90
47618;DHT22;33336;36.728;-4.414;2023-04-24T09:31:19;21.00;99.90
47618;DHT22;33336;36.728;-4.414;2023-04-24T09:36:30;21.30;99.90
47618;DHT22;33336;36.728;-4.414;2023-04-24T09:41:43;21.50;99.90
47618;DHT22;33336;36.728;-4.414;2023-04-24T09:46:50;21.60;99.90
47618;DHT22;33336;36.728;-4.414;2023-04-24T09:52:02;21.70;99.90
47618;DHT22;33336;36.728;-4.414;2023-04-24T09:57:07;21.90;99.90
47618;DHT22;33336;36.728;-4.414;2023-04-24T10:02:19;21.80;99.90
47618;DHT22;33336;36.728;-4.414;2023-04-24T10:07:22;22.50;99.80
47618;DHT22;33336;36.728;-4.414;2023-04-24T10:12:25;22.80;99.30
47618;DHT22;33336;36.728;-4.414;2023-04-24T10:17:31;23.00;99.10
47618;DHT22;33336;36.728;-4.414;2023-04-24T10:22:35;23.20;98.70
47618;DHT22;33336;36.728;-4.414;2023-04-24T10:27:39;23.20;98.80
47618;DHT22;33336;36.728;-4.414;2023-04-24T10:32:44;23.00;98.60
47618;DHT22;33336;36.728;-4.414;2023-04-24T10:37:49;22.90;99.10
47618;DHT22;33336;36.728;-4.414;2023-04-24T10:42:53;22.00;99.90
47618;DHT22;33336;36.728;-4.414;2023-04-24T10:47:58;22.90;99.30
47618;DHT22;33336;36.728;-4.414;2023-04-24T10:53:07;22.80;99.30
47618;DHT22;33336;36.728;-4.414;2023-04-24T10:58:10;23.10;96.90
47618;DHT22;33336;36.728;-4.414;2023-04-24T11:03:26;23.20;96.80
47618;DHT22;33336;36.728;-4.414;2023-04-24T11:08:37;23.70;94.90
47618;DHT22;33336;36.728;-4.414;2023-04-24T11:14:03;23.10;93.80
47618;DHT22;33336;36.728;-4.414;2023-04-24T11:19:09;23.50;93.70
47618;DHT22;33336;36.728;-4.414;2023-04-24T11:24:31;23.90;92.00
47618;DHT22;33336;36.728;-4.414;2023-04-24T11:29:47;24.00;91.50
47618;DHT22;33336;36.728;-4.414;2023-04-24T11:34:54;23.60;92.00
47618;DHT22;33336;36.728;-4.414;2023-04-24T11:39:58;23.40;92.90
47618;DHT22;33336;36.728;-4.414;2023-04-24T11:45:01;23.40;92.30
47618;DHT22;33336;36.728;-4.414;2023-04-24T11:50:08;23.60;91.60
47618;DHT22;33336;36.728;-4.414;2023-04-24T11:55:23;23.60;91.40
47618;DHT22;33336;36.728;-4.414;2023-04-24T12:00:29;23.70;91.00
47618;DHT22;33336;36.728;-4.414;2023-04-24T12:05:33;24.00;92.10
47618;DHT22;33336;36.728;-4.414;2023-04-24T12:10:37;24.10;91.10
47618;DHT22;33336;36.728;-4.414;2023-04-24T12:15:40;24.10;90.60
47618;DHT22;33336;36.728;-4.414;2023-04-24T12:20:45;24.00;90.60
47618;DHT22;33336;36.728;-4.414;2023-04-24T12:25:51;23.80;90.60
47618;DHT22;33336;36.728;-4.414;2023-04-24T12:30:55;24.10;90.40
47618;DHT22;33336;36.728;-4.414;2023-04-24T12:35:59;24.30;91.60
47618;DHT22;33336;36.728;-4.414;2023-04-24T12:41:05;24.50;90.90
47618;DHT22;33336;36.728;-4.414;2023-04-24T12:46:07;24.30;91.20
47618;DHT22;33336;36.728;-4.414;2023-04-24T12:51:12;25.20;90.60
47618;DHT22;33336;36.728;-4.414;2023-04-24T12:56:15;25.60;88.50
47618;DHT22;33336;36.728;-4.414;2023-04-24T13:01:19;25.90;87.70
47618;DHT22;33336;36.728;-4.414;2023-04-24T13:06:23;25.90;86.40
47618;DHT22;33336;36.728;-4.414;2023-04-24T13:11:29;26.90;85.70
47618;DHT22;33336;36.728;-4.414;2023-04-24T13:16:32;26.00;86.60
47618;DHT22;33336;36.728;-4.414;2023-04-24T13:21:36;27.10;84.70
47618;DHT22;33336;36.728;-4.414;2023-04-24T13:26:39;27.30;83.90
47618;DHT22;33336;36.728;-4.414;2023-04-24T13:31:42;27.80;80.70
47618;DHT22;33336;36.728;-4.414;2023-04-24T13:36:46;27.90;81.20
47618;DHT22;33336;36.728;-4.414;2023-04-24T13:41:49;28.20;81.00
47618;DHT22;33336;36.728;-4.414;2023-04-24T13:46:53;28.40;79.90
47618;DHT22;33336;36.728;-4.414;2023-04-24T13:51:59;28.50;77.50
47618;DHT22;33336;36.728;-4.414;2023-04-24T13:57:03;28.60;80.50
47618;DHT22;33336;36.728;-4.414;2023-04-24T14:02:08;28.30;81.50
47618;DHT22;33336;36.728;-4.414;2023-04-24T14:07:12;28.40;79.00
47618;DHT22;33336;36.728;-4.414;2023-04-24T14:12:16;29.00;81.30
47618;DHT22;33336;36.728;-4.414;2023-04-24T14:17:21;29.10;78.50
47618;DHT22;33336;36.728;-4.414;2023-04-24T14:22:26;29.30;78.40
47618;DHT22;33336;36.728;-4.414;2023-04-24T14:27:28;29.40;79.00
47618;DHT22;33336;36.728;-4.414;2023-04-24T14:32:32;29.70;80.60
47618;DHT22;33336;36.728;-4.414;2023-04-24T14:37:36;29.40;80.40
47618;DHT22;33336;36.728;-4.414;2023-04-24T14:42:40;30.00;80.00
47618;DHT22;33336;36.728;-4.414;2023-04-24T14:47:43;29.90;80.10
47618;DHT22;33336;36.728;-4.414;2023-04-24T14:52:48;29.90;80.50
47618;DHT22;33336;36.728;-4.414;2023-04-24T14:57:52;30.20;80.50
47618;DHT22;33336;36.728;-4.414;2023-04-24T15:02:55;30.40;80.20
47618;DHT22;33336;36.728;-4.414;2023-04-24T15:07:59;30.70;79.80
47618;DHT22;33336;36.728;-4.414;2023-04-24T15:13:02;30.00;81.70
47618;DHT22;33336;36.728;-4.414;2023-04-24T15:18:05;29.80;85.10
47618;DHT22;33336;36.728;-4.414;2023-04-24T15:23:11;29.30;86.20
47618;DHT22;33336;36.728;-4.414;2023-04-24T15:28:14;29.60;88.60
47618;DHT22;33336;36.728;-4.414;2023-04-24T15:33:19;29.30;89.50
47618;DHT22;33336;36.728;-4.414;2023-04-24T15:38:24;30.20;87.60
47618;DHT22;33336;36.728;-4.414;2023-04-24T15:43:27;30.60;86.40
47618;DHT22;33336;36.728;-4.414;2023-04-24T15:48:32;30.70;84.10
47618;DHT22;33336;36.728;-4.414;2023-04-24T15:53:36;31.50;84.00
47618;DHT22;33336;36.728;-4.414;2023-04-24T15:58:39;31.30;83.80
47618;DHT22;33336;36.728;-4.414;2023-04-24T16:03:43;31.70;79.20
47618;DHT22;33336;36.728;-4.414;2023-04-24T16:08:48;32.90;76.70
47618;DHT22;33336;36.728;-4.414;2023-04-24T16:13:51;35.30;72.00
47618;DHT22;33336;36.728;-4.414;2023-04-24T16:18:54;36.40;68.40
47618;DHT22;33336;36.728;-4.414;2023-04-24T16:23:58;37.20;65.40
47618;DHT22;33336;36.728;-4.414;2023-04-24T16:29:00;36.50;68.40
47618;DHT22;33336;36.728;-4.414;2023-04-24T16:34:03;35.00;69.20
47618;DHT22;33336;36.728;-4.414;2023-04-24T16:39:08;36.20;65.50
47618;DHT22;33336;36.728;-4.414;2023-04-24T16:44:10;36.10;67.70
47618;DHT22;33336;36.728;-4.414;2023-04-24T16:49:14;38.60;66.80
47618;DHT22;33336;36.728;-4.414;2023-04-24T16:54:18;41.20;65.80
47618;DHT22;33336;36.728;-4.414;2023-04-24T16:59:21;41.60;65.40
47618;DHT22;33336;36.728;-4.414;2023-04-24T17:04:24;41.70;66.00
47618;DHT22;33336;36.728;-4.414;2023-04-24T17:09:28;43.80;64.40
47618;DHT22;33336;36.728;-4.414;2023-04-24T17:14:31;43.20;62.60
47618;DHT22;33336;36.728;-4.414;2023-04-24T17:19:35;40.10;62.00
47618;DHT22;33336;36.728;-4.414;2023-04-24T17:24:39;38.40;65.40
47618;DHT22;33336;36.728;-4.414;2023-04-24T17:29:42;36.10;65.40
47618;DHT22;33336;36.728;-4.414;2023-04-24T17:34:45;33.10;70.00
47618;DHT22;33336;36.728;-4.414;2023-04-24T17:39:50;34.40;69.10
47618;DHT22;33336;36.728;-4.414;2023-04-24T17:44:53;34.80;69.00
47618;DHT22;33336;36.728;-4.414;2023-04-24T17:49:56;34.30;69.00
47618;DHT22;33336;36.728;-4.414;2023-04-24T17:55:00;33.90;67.50
47618;DHT22;33336;36.728;-4.414;2023-04-24T18:00:05;33.00;69.60
47618;DHT22;33336;36.728;-4.414;2023-04-24T18:05:08;31.60;68.40
47618;DHT22;33336;36.728;-4.414;2023-04-24T18:10:13;31.80;69.60
47618;DHT22;33336;36.728;-4.414;2023-04-24T18:15:16;32.30;70.20
47618;DHT22;33336;36.728;-4.414;2023-04-24T18:20:19;31.90;71.50
47618;DHT22;33336;36.728;-4.414;2023-04-24T18:25:23;31.90;70.70
47618;DHT22;33336;36.728;-4.414;2023-04-24T18:30:28;31.90;71.40
47618;DHT22;33336;36.728;-4.414;2023-04-24T18:35:31;30.80;72.30
47618;DHT22;33336;36.728;-4.414;2023-04-24T18:40:36;31.10;73.20
47618;DHT22;33336;36.728;-4.414;2023-04-24T18:45:38;31.00;73.00
47618;DHT22;33336;36.728;-4.414;2023-04-24T18:50:42;31.00;73.60
47618;DHT22;33336;36.728;-4.414;2023-04-24T18:55:47;30.30;74.60
47618;DHT22;33336;36.728;-4.414;2023-04-24T19:00:50;30.00;74.80
47618;DHT22;33336;36.728;-4.414;2023-04-24T19:05:52;29.50;75.80
47618;DHT22;33336;36.728;-4.414;2023-04-24T19:10:57;27.90;77.80
47618;DHT22;33336;36.728;-4.414;2023-04-24T19:16:00;27.20;80.70
47618;DHT22;33336;36.728;-4.414;2023-04-24T19:21:03;27.10;81.80
47618;DHT22;33336;36.728;-4.414;2023-04-24T19:26:07;27.10;82.40
47618;DHT22;33336;36.728;-4.414;2023-04-24T19:31:11;26.90;82.70
47618;DHT22;33336;36.728;-4.414;2023-04-24T19:36:14;26.80;83.70
47618;DHT22;33336;36.728;-4.414;2023-04-24T19:41:19;26.70;83.90
47618;DHT22;33336;36.728;-4.414;2023-04-24T19:46:22;26.40;85.50
47618;DHT22;33336;36.728;-4.414;2023-04-24T19:51:26;26.20;86.10
47618;DHT22;33336;36.728;-4.414;2023-04-24T19:56:30;26.10;86.80
47618;DHT22;33336;36.728;-4.414;2023-04-24T20:01:34;25.90;87.50
47618;DHT22;33336;36.728;-4.414;2023-04-24T20:06:37;25.80;88.30
47618;DHT22;33336;36.728;-4.414;2023-04-24T20:11:41;25.60;88.70
47618;DHT22;33336;36.728;-4.414;2023-04-24T20:16:45;25.50;89.50
47618;DHT22;33336;36.728;-4.414;2023-04-24T20:21:48;25.20;90.30
47618;DHT22;33336;36.728;-4.414;2023-04-24T20:26:52;24.60;91.00
47618;DHT22;33336;36.728;-4.414;2023-04-24T20:31:56;24.20;91.70
47618;DHT22;33336;36.728;-4.414;2023-04-24T20:36:59;24.30;91.50
47618;DHT22;33336;36.728;-4.414;2023-04-24T20:42:06;23.90;92.20
47618;DHT22;33336;36.728;-4.414;2023-04-24T20:47:11;23.80;92.20
47618;DHT22;33336;36.728;-4.414;2023-04-24T20:52:14;24.20;91.40
47618;DHT22;33336;36.728;-4.414;2023-04-24T20:57:18;24.00;91.40
47618;DHT22;33336;36.728;-4.414;2023-04-24T21:02:22;23.80;91.40
47618;DHT22;33336;36.728;-4.414;2023-04-24T21:07:25;23.10;92.30
47618;DHT22;33336;36.728;-4.414;2023-04-24T21:12:29;22.90;92.70
47618;DHT22;33336;36.728;-4.414;2023-04-24T21:17:32;22.80;93.50
47618;DHT22;33336;36.728;-4.414;2023-04-24T21:22:36;23.40;92.80
47618;DHT22;33336;36.728;-4.414;2023-04-24T21:27:40;23.30;93.40
47618;DHT22;33336;36.728;-4.414;2023-04-24T21:32:44;23.50;93.50
47618;DHT22;33336;36.728;-4.414;2023-04-24T21:37:46;23.60;93.10
47618;DHT22;33336;36.728;-4.414;2023-04-24T21:42:51;23.60;93.00
47618;DHT22;33336;36.728;-4.414;2023-04-24T21:47:54;23.50;93.00
47618;DHT22;33336;36.728;-4.414;2023-04-24T21:52:59;22.60;95.70
47618;DHT22;33336;36.728;-4.414;2023-04-24T21:58:03;22.20;97.90
47618;DHT22;33336;36.728;-4.414;2023-04-24T22:03:07;22.10;98.60
47618;DHT22;33336;36.728;-4.414;2023-04-24T22:08:09;22.30;97.80
47618;DHT22;33336;36.728;-4.414;2023-04-24T22:13:14;22.40;97.80
47618;DHT22;33336;36.728;-4.414;2023-04-24T22:18:17;22.80;97.40
47618;DHT22;33336;36.728;-4.414;2023-04-24T22:23:21;22.50;98.00
47618;DHT22;33336;36.728;-4.414;2023-04-24T22:28:25;22.70;97.90
47618;DHT22;33336;36.728;-4.414;2023-04-24T22:33:29;22.80;97.80
47618;DHT22;33336;36.728;-4.414;2023-04-24T22:38:31;22.80;97.10
47618;DHT22;33336;36.728;-4.414;2023-04-24T22:43:36;22.70;97.10
47618;DHT22;33336;36.728;-4.414;2023-04-24T22:48:39;22.30;98.00
47618;DHT22;33336;36.728;-4.414;2023-04-24T22:53:43;21.90;98.10
47618;DHT22;33336;36.728;-4.414;2023-04-24T22:58:47;21.70;98.20
47618;DHT22;33336;36.728;-4.414;2023-04-24T23:03:51;21.90;97.90
47618;DHT22;33336;36.728;-4.414;2023-04-24T23:08:53;22.20;96.90
47618;DHT22;33336;36.728;-4.414;2023-04-24T23:13:58;22.30;96.70
47618;DHT22;33336;36.728;-4.414;2023-04-24T23:19:01;22.40;97.00
47618;DHT22;33336;36.728;-4.414;2023-04-24T23:24:05;22.40;96.90
47618;DHT22;33336;36.728;-4.414;2023-04-24T23:29:10;22.40;96.30
47618;DHT22;33336;36.728;-4.414;2023-04-24T23:34:13;22.30;95.90
47618;DHT22;33336;36.728;-4.414;2023-04-24T23:39:18;22.20;95.20
47618;DHT22;33336;36.728;-4.414;2023-04-24T23:44:23;21.90;94.80
47618;DHT22;33336;36.728;-4.414;2023-04-24T23:49:26;22.10;94.30
47618;DHT22;33336;36.728;-4.414;2023-04-24T23:54:30;22.00;94.10
47618;DHT22;33336;36.728;-4.414;2023-04-24T23:59:34;21.60;94.10
